KCDS Airport (Childress Muni) Information

FAA: CDS - ICAO: KCDS

KCDS Airport Location

State Texas
County Childress
City Childress
KCDS Airport is 4 miles west of Childress, TX.
Latitude 34-26-01.6000N
Longitude 100-17-16.8000W
Elevation 1,953ft

KCDS Airport METARs

METAR KCDS 020201Z AUTO 17007KT 7SM -FZRA FEW006 SCT042 OVC070 M01/M02 A3026 RMK AO2 P0000 I1000 T10061022
Altimeter 30.26"
Temperature -0.6°C (30.9°F)
Wind 170° at 7KT
Clouds few at 600ft scattered at 4,200ft overcast at 7,000ft
Visibility 7.0mi
Time observed: 2023-02-02T02:01:00Z

KCDS Airport Details

Status Operational
Activation July 1943
Ownership Public
Usage Public
Chart DALLAS-FT WORTH
ATC on-site No
Beacon schedule sunset-sunrise
Beacon color clear green

KCDS Airport Contacts

Owner CITY OF CHILDRESS
Owner address 315 COMMERCE STREET, CHILDRESS, TX 79201
Owner phone 940-937-3684
Manager GARY HUDSON
Manager address 409 W. COTTAGE, CARTHAGE, TX 75633
Manager phone 214-693-3841

KCDS Airport (Childress Muni) Radio Frequencies

KCDS (Airport) Radio Frequencies

UNICOM 122.8
Common traffic advisory frequency (CTAF) 122.8